Time;durP1;ratioP1;P1;durP2;ratioP2;P2;SDS_P1;SDS_P2;PMS_P1;PMS_P2;Temp;Humidity;BMP_temperature;BMP_pressure;BME280_temperature;BME280_humidity;BME280_pressure;Samples;Min_cycle;Max_cycle;Signal;HPM_P1;HPM_P2
2021/08/25 00:00:46;;;;;;;;;;;;;;;24.05;49.29;100653.00;5051885;28;1784;-52
2021/08/25 00:03:15;;;;;;;;;;;;;;;23.97;49.82;100646.63;5040002;28;1722;-52
2021/08/25 00:05:42;;;;;;;;;;;;;;;23.84;49.78;100640.06;5050901;28;1906;-51
2021/08/25 00:08:10;;;;;;;;;;;;;;;23.88;49.87;100644.09;5052695;28;1417;-52
2021/08/25 00:10:37;;;;;;;;;;;;;;;23.90;49.77;100647.47;5054360;28;1791;-52
2021/08/25 00:13:11;;;;;;;;;;;;;;;23.95;50.03;100653.19;5056535;28;1602;-52
2021/08/25 00:15:47;;;;;;;;;;;;;;;23.93;49.43;100639.84;5052711;28;1790;-52
2021/08/25 00:18:14;;;;;;;;;;;;;;;23.87;49.93;100627.03;5057060;28;1696;-52
2021/08/25 00:20:46;;;;;;;;;;;;;;;23.88;50.03;100627.91;5055708;28;2182;-52
2021/08/25 00:23:13;;;;;;;;;;;;;;;23.86;49.93;100625.38;5054887;28;1790;-52
2021/08/25 00:25:40;;;;;;;;;;;;;;;23.84;50.13;100624.69;5047618;28;1973;-52
2021/08/25 00:28:07;;;;;;;;;;;;;;;23.76;50.20;100630.91;5044481;28;1689;-51
2021/08/25 00:30:35;;;;;;;;;;;;;;;23.66;50.20;100605.94;5055411;28;1774;-52
2021/08/25 00:33:06;;;;;;;;;;;;;;;23.79;50.12;100635.16;5046248;28;1744;-52
2021/08/25 00:35:33;;;;;;;;;;;;;;;23.77;50.31;100619.13;5054333;28;1753;-52
2021/08/25 00:38:04;;;;;;;;;;;;;;;23.80;50.11;100617.94;5056306;28;1772;-52
2021/08/25 00:40:31;;;;;;;;;;;;;;;23.75;50.33;100622.97;5055943;28;1763;-51
2021/08/25 00:43:04;;;;;;;;;;;;;;;23.79;50.22;100611.69;5055654;28;1886;-52
2021/08/25 00:45:32;;;;;;;;;;;;;;;23.79;49.90;100616.25;5055602;28;1969;-52
2021/08/25 00:48:00;;;;;;;;;;;;;;;23.82;50.11;100614.06;5048811;28;1576;-52
2021/08/25 00:50:28;;;;;;;;;;;;;;;23.73;50.50;100619.59;5054449;28;1974;-52
2021/08/25 00:52:58;;;;;;;;;;;;;;;23.74;50.50;100626.69;5047606;28;1972;-52
2021/08/25 00:55:31;;;;;;;;;;;;;;;23.77;50.28;100615.53;5055308;28;1884;-52
2021/08/25 00:57:59;;;;;;;;;;;;;;;23.78;50.16;100611.88;5051245;28;1567;-52
2021/08/25 01:00:26;;;;;;;;;;;;;;;23.82;50.58;100602.41;5053603;28;1417;-51
2021/08/25 01:02:56;;;;;;;;;;;;;;;23.84;50.40;100588.75;5055858;28;1417;-52
2021/08/25 01:05:24;;;;;;;;;;;;;;;23.79;50.45;100590.09;5055079;28;1997;-51
2021/08/25 01:07:53;;;;;;;;;;;;;;;23.81;50.66;100598.88;5055637;28;1979;-52
2021/08/25 01:10:23;;;;;;;;;;;;;;;23.82;50.42;100600.56;5041195;28;2028;-51
2021/08/25 01:12:51;;;;;;;;;;;;;;;23.78;50.79;100582.19;5054357;28;1692;-52
2021/08/25 01:15:18;;;;;;;;;;;;;;;23.79;50.72;100594.66;5055136;28;1950;-52
2021/08/25 01:17:45;;;;;;;;;;;;;;;23.79;50.74;100587.38;5046036;28;1624;-51
2021/08/25 01:20:15;;;;;;;;;;;;;;;23.78;50.78;100580.31;5054243;28;1725;-51
2021/08/25 01:22:43;;;;;;;;;;;;;;;23.77;50.80;100585.84;5039490;28;2029;-52
2021/08/25 01:25:13;;;;;;;;;;;;;;;23.81;50.83;100593.47;5054959;28;1910;-51
2021/08/25 01:27:52;;;;;;;;;;;;;;;23.80;50.92;100590.94;5054545;28;1522;-52
2021/08/25 01:30:21;;;;;;;;;;;;;;;23.79;50.75;100590.09;5049631;28;1510;-52
2021/08/25 01:32:49;;;;;;;;;;;;;;;23.80;50.80;100593.66;5042909;28;1757;-52
2021/08/25 01:35:16;;;;;;;;;;;;;;;23.80;50.79;100601.75;5052205;28;2104;-52
2021/08/25 01:37:42;;;;;;;;;;;;;;;23.78;50.83;100591.13;5054855;28;1747;-51
2021/08/25 01:40:10;;;;;;;;;;;;;;;23.76;50.86;100578.78;5055232;28;1940;-52
2021/08/25 01:42:38;;;;;;;;;;;;;;;23.73;51.09;100587.19;5054722;28;1672;-51
2021/08/25 01:45:09;;;;;;;;;;;;;;;23.76;51.09;100592.28;5052399;28;1906;-51
2021/08/25 01:47:39;;;;;;;;;;;;;;;23.70;51.29;100574.06;5049578;28;1697;-52
2021/08/25 01:50:06;;;;;;;;;;;;;;;23.70;51.06;100574.91;5051357;28;1931;-52
2021/08/25 01:52:34;;;;;;;;;;;;;;;23.72;51.49;100583.66;5050876;28;1534;-51
2021/08/25 01:55:03;;;;;;;;;;;;;;;23.68;50.98;100584.19;5051850;28;1565;-52
2021/08/25 01:57:31;;;;;;;;;;;;;;;23.70;51.56;100601.06;5037148;28;1766;-52
2021/08/25 01:59:57;;;;;;;;;;;;;;;23.70;51.13;100585.69;5055260;28;1529;-52
2021/08/25 02:02:32;;;;;;;;;;;;;;;23.71;51.32;100587.38;5120515;22;3633;-51
2021/08/25 02:05:05;;;;;;;;;;;;;;;23.71;51.38;100590.06;5013312;28;1914;-51
2021/08/25 02:07:32;;;;;;;;;;;;;;;23.70;51.03;100585.69;5015208;28;1517;-51
2021/08/25 02:10:00;;;;;;;;;;;;;;;23.74;51.18;100584.34;5018165;28;1740;-51
2021/08/25 02:12:29;;;;;;;;;;;;;;;23.69;51.18;100586.69;5013238;28;1573;-51
2021/08/25 02:14:59;;;;;;;;;;;;;;;23.64;50.88;100580.97;5009501;28;1477;-51
2021/08/25 02:17:27;;;;;;;;;;;;;;;23.63;51.13;100577.44;5031120;28;1411;-51
2021/08/25 02:20:02;;;;;;;;;;;;;;;23.63;51.30;100574.75;4999364;28;1727;-51
2021/08/25 02:22:37;;;;;;;;;;;;;;;23.63;51.14;100579.28;5000133;28;1701;-51
2021/08/25 02:25:08;;;;;;;;;;;;;;;23.65;51.13;100571.84;5014052;28;1987;-51
2021/08/25 02:27:35;;;;;;;;;;;;;;;23.74;50.98;100580.81;5013996;28;1753;-51
2021/08/25 02:30:02;;;;;;;;;;;;;;;23.66;51.00;100576.25;5011105;28;1560;-51
2021/08/25 02:32:36;;;;;;;;;;;;;;;23.63;51.40;100579.28;5027867;28;1107;-51
2021/08/25 02:35:04;;;;;;;;;;;;;;;23.60;51.27;100568.84;5013195;28;1597;-51
2021/08/25 02:37:32;;;;;;;;;;;;;;;23.65;51.16;100576.41;5014547;28;1664;-51
2021/08/25 02:40:02;;;;;;;;;;;;;;;23.61;51.43;100570.50;5027371;28;1425;-51
2021/08/25 02:42:29;;;;;;;;;;;;;;;23.43;51.56;100570.69;5012305;28;1706;-51
2021/08/25 02:44:55;;;;;;;;;;;;;;;23.46;51.42;100577.59;4994209;28;1922;-51
2021/08/25 02:47:23;;;;;;;;;;;;;;;23.50;51.21;100562.78;5011239;28;1521;-51
2021/08/25 02:49:50;;;;;;;;;;;;;;;23.60;51.29;100588.56;5010839;28;1966;-51
2021/08/25 02:52:38;;;;;;;;;;;;;;;23.60;51.04;100575.06;5026685;28;1834;-51
2021/08/25 02:55:11;;;;;;;;;;;;;;;23.57;50.99;100578.09;4997128;28;2171;-51
2021/08/25 02:57:38;;;;;;;;;;;;;;;23.61;51.32;100586.72;5010688;28;1805;-52
2021/08/25 03:00:13;;;;;;;;;;;;;;;23.47;51.51;100603.59;5023539;28;1558;-51
2021/08/25 03:02:40;;;;;;;;;;;;;;;22.96;53.02;100599.16;4992489;28;1761;-51
2021/08/25 03:05:08;;;;;;;;;;;;;;;23.16;52.74;100604.28;5004055;28;1948;-51
2021/08/25 03:07:35;;;;;;;;;;;;;;;23.38;52.36;100609.00;5028396;28;1423;-51
2021/08/25 03:10:05;;;;;;;;;;;;;;;23.38;52.37;100600.91;5028254;28;1682;-51
2021/08/25 03:12:41;;;;;;;;;;;;;;;23.45;52.17;100606.47;4996670;28;1903;-51
2021/08/25 03:15:10;;;;;;;;;;;;;;;23.50;51.84;100604.09;5025330;28;1854;-51
2021/08/25 03:17:37;;;;;;;;;;;;;;;23.51;52.08;100615.75;4996455;28;2164;-51
2021/08/25 03:20:06;;;;;;;;;;;;;;;23.57;52.01;100609.66;5004506;28;1950;-51
2021/08/25 03:22:34;;;;;;;;;;;;;;;23.52;52.01;100612.03;5011696;28;1939;-51
2021/08/25 03:25:02;;;;;;;;;;;;;;;23.58;51.74;100600.56;5022315;28;1914;-51
2021/08/25 03:27:28;;;;;;;;;;;;;;;23.47;52.07;100606.28;5028203;28;1539;-51
2021/08/25 03:32:41;;;;;;;;;;;;;;;23.69;51.94;100607.47;5017076;28;2625;-51
2021/08/25 03:35:09;;;;;;;;;;;;;;;23.63;52.34;100608.97;5010289;28;2622;-51
2021/08/25 03:37:54;;;;;;;;;;;;;;;23.62;52.11;100620.81;5010779;28;1709;-52
2021/08/25 03:40:20;;;;;;;;;;;;;;;23.72;51.70;100626.88;5000266;28;1571;-51
2021/08/25 03:42:50;;;;;;;;;;;;;;;23.67;52.37;100633.78;5005319;28;1556;-51
2021/08/25 03:48:05;;;;;;;;;;;;;;;23.49;52.46;100612.38;5015766;28;2189;-51
2021/08/25 03:53:14;;;;;;;;;;;;;;;23.59;52.57;100631.94;5004783;28;2302;-51
2021/08/25 03:55:42;;;;;;;;;;;;;;;23.53;52.18;100619.09;5011648;28;2005;-51
2021/08/25 03:58:13;;;;;;;;;;;;;;;23.56;52.54;100632.28;5012628;28;1556;-51
2021/08/25 04:00:45;;;;;;;;;;;;;;;23.46;52.47;100631.56;5012523;28;1730;-51
2021/08/25 04:03:12;;;;;;;;;;;;;;;23.55;52.54;100635.97;5014352;28;1411;-51
2021/08/25 04:05:46;;;;;;;;;;;;;;;23.53;52.44;100621.81;5014250;28;1913;-51
2021/08/25 04:08:15;;;;;;;;;;;;;;;23.44;52.65;100637.16;5009923;28;2679;-51
2021/08/25 04:10:42;;;;;;;;;;;;;;;23.47;52.52;100649.47;5007157;28;1552;-51
2021/08/25 04:13:09;;;;;;;;;;;;;;;23.40;53.00;100633.97;5014582;28;1711;-51
2021/08/25 04:15:50;;;;;;;;;;;;;;;23.46;52.66;100629.75;5014260;28;1725;-51
2021/08/25 04:18:22;;;;;;;;;;;;;;;23.51;52.88;100640.03;5010811;28;1703;-51
2021/08/25 04:20:49;;;;;;;;;;;;;;;23.48;52.77;100648.47;5013321;28;1608;-51
2021/08/25 04:23:16;;;;;;;;;;;;;;;23.43;53.12;100644.41;5011315;28;1690;-51
2021/08/25 04:25:43;;;;;;;;;;;;;;;23.50;52.59;100644.59;5004163;28;1989;-51
2021/08/25 04:28:10;;;;;;;;;;;;;;;23.55;52.48;100650.31;5002247;28;1556;-51
2021/08/25 04:30:36;;;;;;;;;;;;;;;23.51;53.03;100657.06;5008680;28;1871;-51
2021/08/25 04:33:07;;;;;;;;;;;;;;;23.45;53.20;100646.09;5014915;28;1412;-51
2021/08/25 04:35:40;;;;;;;;;;;;;;;23.49;52.92;100656.38;5014659;28;1572;-51
2021/08/25 04:38:08;;;;;;;;;;;;;;;23.42;53.42;100675.13;5014478;28;1497;-51
2021/08/25 04:40:35;;;;;;;;;;;;;;;23.49;53.13;100666.34;5015039;28;1889;-51
2021/08/25 04:43:01;;;;;;;;;;;;;;;23.57;53.17;100659.09;5010425;28;1663;-51
2021/08/25 04:45:30;;;;;;;;;;;;;;;23.80;52.97;100664.69;5010825;28;1906;-51
2021/08/25 04:47:56;;;;;;;;;;;;;;;24.06;52.53;100670.91;5012555;28;1662;-51
2021/08/25 04:50:23;;;;;;;;;;;;;;;24.06;51.72;100677.16;5012188;28;1679;-51
2021/08/25 04:52:53;;;;;;;;;;;;;;;24.02;52.62;100670.41;5014053;28;1930;-51
2021/08/25 04:55:21;;;;;;;;;;;;;;;24.17;51.67;100662.44;5013136;28;1788;-51
2021/08/25 04:57:48;;;;;;;;;;;;;;;24.29;52.00;100661.06;5011574;28;1877;-51
2021/08/25 05:00:14;;;;;;;;;;;;;;;24.17;52.32;100649.78;5009624;28;1681;-51
2021/08/25 05:02:41;;;;;;;;;;;;;;;24.14;52.57;100660.09;5007627;28;1950;-51
2021/08/25 05:05:08;;;;;;;;;;;;;;;23.99;53.40;100654.53;5010073;28;2299;-51
2021/08/25 05:07:35;;;;;;;;;;;;;;;23.96;53.42;100655.72;5008271;28;1906;-51
2021/08/25 05:10:03;;;;;;;;;;;;;;;23.98;53.59;100652.88;5007951;28;1675;-51
2021/08/25 05:12:29;;;;;;;;;;;;;;;23.93;53.50;100656.06;5006239;28;1612;-51
2021/08/25 05:14:56;;;;;;;;;;;;;;;23.78;53.75;100658.63;5008709;28;1544;-51
2021/08/25 05:17:22;;;;;;;;;;;;;;;23.94;53.25;100651.53;5011428;28;1249;-51
2021/08/25 05:19:49;;;;;;;;;;;;;;;23.92;54.07;100667.06;5011272;28;1542;-51
2021/08/25 05:22:15;;;;;;;;;;;;;;;23.94;53.47;100654.22;5012405;28;1552;-51
2021/08/25 05:24:41;;;;;;;;;;;;;;;24.02;53.54;100648.81;5008569;28;1794;-51
2021/08/25 05:27:09;;;;;;;;;;;;;;;24.08;53.20;100685.94;5009553;28;1976;-51
2021/08/25 05:29:36;;;;;;;;;;;;;;;24.09;52.84;100684.06;5006647;28;1710;-51
2021/08/25 05:32:02;;;;;;;;;;;;;;;24.32;52.82;100678.78;5008632;28;1407;-51
2021/08/25 05:37:31;;;;;;;;;;;;;;;24.37;53.11;100682.66;5004925;28;1587;-51
2021/08/25 05:39:58;;;;;;;;;;;;;;;24.41;52.74;100681.31;5006548;28;1567;-52
2021/08/25 05:42:26;;;;;;;;;;;;;;;24.49;52.71;100693.97;5012638;28;1607;-51
2021/08/25 05:44:52;;;;;;;;;;;;;;;24.51;52.48;100672.16;5004126;28;1712;-51
2021/08/25 05:47:19;;;;;;;;;;;;;;;24.65;52.50;100670.59;5013388;28;1911;-51
2021/08/25 05:49:45;;;;;;;;;;;;;;;24.66;52.56;100685.81;5008063;28;1766;-52
2021/08/25 05:52:12;;;;;;;;;;;;;;;24.66;53.10;100683.94;5008696;28;1916;-52
2021/08/25 05:54:38;;;;;;;;;;;;;;;24.71;53.03;100665.34;5005620;28;1532;-52
2021/08/25 05:57:04;;;;;;;;;;;;;;;24.80;53.44;100658.03;5010908;28;1438;-52
2021/08/25 05:59:32;;;;;;;;;;;;;;;24.91;53.76;100670.31;5008428;28;1816;-51
2021/08/25 06:01:59;;;;;;;;;;;;;;;24.92;53.73;100642.25;5010939;28;1395;-52
2021/08/25 06:04:25;;;;;;;;;;;;;;;25.00;54.34;100651.16;5008161;28;1890;-51
2021/08/25 06:06:52;;;;;;;;;;;;;;;25.04;54.92;100642.69;5008103;28;1887;-52
2021/08/25 06:09:18;;;;;;;;;;;;;;;25.00;56.56;100639.50;5010139;28;1947;-51
2021/08/25 06:11:45;;;;;;;;;;;;;;;25.01;56.43;100631.22;5010678;28;1513;-52
2021/08/25 06:14:11;;;;;;;;;;;;;;;25.06;56.35;100636.06;5008432;28;1584;-52
2021/08/25 06:16:39;;;;;;;;;;;;;;;25.10;56.96;100629.28;5008575;28;1554;-52
2021/08/25 06:19:05;;;;;;;;;;;;;;;25.10;57.06;100626.56;5003174;28;1473;-52
2021/08/25 06:21:32;;;;;;;;;;;;;;;25.10;57.26;100628.44;5008820;28;2193;-49
2021/08/25 06:23:58;;;;;;;;;;;;;;;25.06;58.00;100614.41;5009543;28;1853;-52
2021/08/25 06:26:25;;;;;;;;;;;;;;;25.06;57.46;100633.38;5005135;28;1977;-51
2021/08/25 06:28:51;;;;;;;;;;;;;;;25.02;58.27;100626.63;5010747;28;1771;-52
2021/08/25 06:31:18;;;;;;;;;;;;;;;24.93;59.62;100627.69;5007501;28;1784;-52
2021/08/25 06:33:46;;;;;;;;;;;;;;;24.83;61.02;100624.38;4998814;28;1728;-52
2021/08/25 06:36:12;;;;;;;;;;;;;;;24.84;60.10;100642.28;5012203;28;1510;-52
2021/08/25 06:38:39;;;;;;;;;;;;;;;24.84;61.17;100632.31;5013323;28;1060;-52
2021/08/25 06:41:05;;;;;;;;;;;;;;;24.81;61.14;100627.28;5011762;28;1802;-52
2021/08/25 06:43:31;;;;;;;;;;;;;;;24.84;60.17;100624.19;5011534;28;1561;-52
2021/08/25 06:45:58;;;;;;;;;;;;;;;24.81;60.68;100622.69;5011916;28;1906;-52
2021/08/25 06:48:31;;;;;;;;;;;;;;;24.83;60.45;100614.41;5013426;28;1043;-52
2021/08/25 06:50:59;;;;;;;;;;;;;;;24.84;60.53;100618.78;5012491;28;1100;-52
2021/08/25 06:53:26;;;;;;;;;;;;;;;24.87;59.69;100618.44;5011167;28;2126;-52
2021/08/25 06:55:52;;;;;;;;;;;;;;;24.88;59.56;100611.16;5011488;28;1632;-54
2021/08/25 06:58:19;;;;;;;;;;;;;;;24.87;59.51;100623.84;5011920;28;1702;-52
2021/08/25 07:00:45;;;;;;;;;;;;;;;24.88;59.10;100612.00;5011547;28;1792;-52
2021/08/25 07:03:12;;;;;;;;;;;;;;;24.89;59.09;100612.84;5011415;28;1406;-52
2021/08/25 07:05:38;;;;;;;;;;;;;;;24.91;59.70;100608.97;5010731;28;1564;-52
2021/08/25 07:08:13;;;;;;;;;;;;;;;24.90;59.34;100615.38;5011118;28;1910;-52
2021/08/25 07:10:40;;;;;;;;;;;;;;;24.96;58.85;100613.81;5011586;28;1678;-52
2021/08/25 07:13:06;;;;;;;;;;;;;;;24.95;59.22;100607.56;5011270;28;1902;-52
2021/08/25 07:15:33;;;;;;;;;;;;;;;24.94;58.60;100614.00;5011366;28;1489;-52
2021/08/25 07:17:59;;;;;;;;;;;;;;;24.94;58.19;100607.75;5012633;28;1137;-52
2021/08/25 07:20:26;;;;;;;;;;;;;;;24.96;58.24;100603.00;5011027;28;1917;-54
2021/08/25 07:22:52;;;;;;;;;;;;;;;24.97;58.20;100610.94;5011028;28;1564;-52
2021/08/25 07:25:20;;;;;;;;;;;;;;;24.97;58.13;100629.03;5011194;28;1715;-52
2021/08/25 07:27:46;;;;;;;;;;;;;;;24.99;58.02;100622.44;5011220;28;1914;-52
2021/08/25 07:30:13;;;;;;;;;;;;;;;25.00;58.03;100637.63;5010868;28;1629;-52
2021/08/25 07:32:40;;;;;;;;;;;;;;;25.00;58.36;100642.19;5012611;28;1039;-52
2021/08/25 07:35:07;;;;;;;;;;;;;;;25.00;57.72;100629.50;5011228;28;1862;-52
2021/08/25 07:37:34;;;;;;;;;;;;;;;25.02;58.21;100630.16;5011216;28;1718;-52
2021/08/25 07:40:00;;;;;;;;;;;;;;;25.08;57.85;100633.19;5012357;28;1234;-52
2021/08/25 07:42:28;;;;;;;;;;;;;;;25.06;58.30;100637.94;5011004;28;1700;-52
2021/08/25 07:44:55;;;;;;;;;;;;;;;25.07;57.77;100639.59;5011073;28;1724;-52
2021/08/25 07:47:21;;;;;;;;;;;;;;;25.09;57.56;100637.56;5010755;28;1984;-52
2021/08/25 07:49:48;;;;;;;;;;;;;;;25.07;57.33;100634.19;5010604;28;1712;-52
2021/08/25 07:52:14;;;;;;;;;;;;;;;25.11;57.49;100632.81;5010879;28;1585;-54
2021/08/25 07:54:40;;;;;;;;;;;;;;;25.12;57.70;100639.94;5010728;28;2080;-52
2021/08/25 07:57:07;;;;;;;;;;;;;;;25.07;58.02;100626.94;5011048;28;2230;-52
2021/08/25 07:59:35;;;;;;;;;;;;;;;25.11;57.15;100622.84;5010822;28;1580;-52
2021/08/25 08:02:14;;;;;;;;;;;;;;;25.10;57.49;100617.63;5010777;28;1418;-52
2021/08/25 08:04:41;;;;;;;;;;;;;;;25.10;57.17;100615.75;5010841;28;1732;-52
2021/08/25 08:07:07;;;;;;;;;;;;;;;25.13;57.11;100619.97;5010575;28;1898;-52
2021/08/25 08:09:34;;;;;;;;;;;;;;;25.09;57.22;100614.09;5010950;28;1680;-52
2021/08/25 08:12:00;;;;;;;;;;;;;;;25.10;57.69;100606.78;5010436;28;1568;-52
2021/08/25 08:14:28;;;;;;;;;;;;;;;25.12;56.88;100613.69;5010675;28;1665;-52
2021/08/25 08:16:59;;;;;;;;;;;;;;;25.13;57.37;100601.03;5012251;28;1070;-52
2021/08/25 08:19:30;;;;;;;;;;;;;;;25.14;57.36;100594.59;5010603;28;1564;-52
2021/08/25 08:21:56;;;;;;;;;;;;;;;25.16;57.83;100604.19;5010571;28;1541;-53
2021/08/25 08:24:23;;;;;;;;;;;;;;;25.17;57.11;100611.31;5010339;28;2133;-52
2021/08/25 08:26:56;;;;;;;;;;;;;;;25.13;57.34;100603.75;5010711;28;1879;-52
2021/08/25 08:29:22;;;;;;;;;;;;;;;25.18;57.75;100607.56;5010892;28;1841;-52
2021/08/25 08:31:49;;;;;;;;;;;;;;;25.16;56.68;100612.31;5014027;28;1080;-52
2021/08/25 08:34:17;;;;;;;;;;;;;;;25.15;57.21;100602.53;5014106;28;1634;-52
2021/08/25 08:36:43;;;;;;;;;;;;;;;25.19;56.70;100603.03;5014459;28;1973;-52
2021/08/25 08:39:10;;;;;;;;;;;;;;;25.20;57.42;100588.44;5014205;28;1721;-52
2021/08/25 08:41:39;;;;;;;;;;;;;;;25.19;57.57;100581.38;5014423;28;1606;-53
2021/08/25 08:44:06;;;;;;;;;;;;;;;25.17;56.71;100588.84;5015848;28;1052;-52
2021/08/25 08:46:33;;;;;;;;;;;;;;;25.19;57.38;100592.19;5013721;28;1652;-53
2021/08/25 08:48:59;;;;;;;;;;;;;;;25.22;56.64;100596.44;5014098;28;1965;-52
2021/08/25 08:51:27;;;;;;;;;;;;;;;25.22;56.48;100597.25;5010223;28;1872;-52
2021/08/25 08:53:54;;;;;;;;;;;;;;;25.18;57.03;100579.69;5014596;28;2256;-52
2021/08/25 08:56:22;;;;;;;;;;;;;;;25.19;56.70;100584.91;5014895;28;1074;-52
2021/08/25 08:58:50;;;;;;;;;;;;;;;25.20;56.83;100572.22;5014117;28;1781;-52
2021/08/25 09:01:17;;;;;;;;;;;;;;;25.21;56.89;100576.63;5013392;28;1721;-52
2021/08/25 09:03:43;;;;;;;;;;;;;;;25.24;56.68;100573.56;5012554;28;1763;-52
2021/08/25 09:06:10;;;;;;;;;;;;;;;25.22;57.15;100564.78;5012188;28;2032;-52
2021/08/25 09:08:39;;;;;;;;;;;;;;;25.19;56.39;100568.69;5014568;28;1899;-52
2021/08/25 09:11:07;;;;;;;;;;;;;;;25.23;57.30;100573.75;5013712;28;2055;-52
2021/08/25 09:13:35;;;;;;;;;;;;;;;25.20;57.11;100551.41;5013396;28;1645;-52
2021/08/25 09:16:02;;;;;;;;;;;;;;;25.25;56.83;100571.69;5009485;28;2290;-52
2021/08/25 09:18:28;;;;;;;;;;;;;;;25.23;56.55;100561.06;5014813;28;1052;-53
2021/08/25 09:20:55;;;;;;;;;;;;;;;25.25;56.66;100569.84;5014294;28;1075;-52
2021/08/25 09:23:21;;;;;;;;;;;;;;;25.23;56.41;100557.50;5012639;28;1737;-52
2021/08/25 09:25:51;;;;;;;;;;;;;;;25.23;56.83;100561.06;5013433;28;2277;-52
2021/08/25 09:28:18;;;;;;;;;;;;;;;25.25;57.31;100558.16;5013557;28;2321;-52
2021/08/25 09:30:58;;;;;;;;;;;;;;;25.27;57.17;100553.41;5013500;28;1516;-52
2021/08/25 09:33:26;;;;;;;;;;;;;;;25.26;57.10;100549.03;5014359;28;1521;-52
2021/08/25 09:35:54;;;;;;;;;;;;;;;25.22;56.54;100542.31;5013301;28;1839;-52
2021/08/25 09:38:21;;;;;;;;;;;;;;;25.21;57.33;100530.63;5013051;28;1565;-52
2021/08/25 09:40:48;;;;;;;;;;;;;;;25.26;57.51;100533.63;5013278;28;1621;-52
2021/08/25 09:43:30;;;;;;;;;;;;;;;25.25;57.11;100528.38;5012292;28;1723;-53
2021/08/25 09:46:03;;;;;;;;;;;;;;;25.27;56.29;100508.25;5012832;28;1800;-52
2021/08/25 09:48:32;;;;;;;;;;;;;;;25.26;56.83;100501.16;5014103;28;1906;-52
2021/08/25 09:50:59;;;;;;;;;;;;;;;25.29;57.23;100508.91;5013567;28;1103;-52
2021/08/25 09:53:25;;;;;;;;;;;;;;;25.28;56.54;100499.09;5012773;28;1550;-52
2021/08/25 09:55:52;;;;;;;;;;;;;;;25.29;56.67;100503.50;5012864;28;1667;-52
2021/08/25 09:58:20;;;;;;;;;;;;;;;25.28;57.35;100490.97;5012643;28;1515;-52
2021/08/25 10:00:48;;;;;;;;;;;;;;;25.27;56.87;100478.50;5013017;28;1809;-52
2021/08/25 10:03:14;;;;;;;;;;;;;;;25.25;57.13;100464.31;5012538;28;1393;-52
2021/08/25 10:05:41;;;;;;;;;;;;;;;25.27;56.74;100470.38;5012984;28;1842;-52
2021/08/25 10:08:07;;;;;;;;;;;;;;;25.27;56.45;100464.09;5012486;28;1906;-52
2021/08/25 10:10:34;;;;;;;;;;;;;;;25.32;56.91;100461.69;5012114;28;1674;-52
2021/08/25 10:13:02;;;;;;;;;;;;;;;25.28;56.67;100458.50;5012472;28;1629;-52
2021/08/25 10:15:40;;;;;;;;;;;;;;;25.32;56.53;100449.00;5012567;28;1694;-52
2021/08/25 10:18:22;;;;;;;;;;;;;;;25.28;56.34;100450.38;5013552;28;1068;-52
2021/08/25 10:20:48;;;;;;;;;;;;;;;25.34;56.60;100470.47;5012604;28;1899;-52
2021/08/25 10:23:15;;;;;;;;;;;;;;;25.34;57.17;100471.28;5011589;28;1781;-52
2021/08/25 10:25:56;;;;;;;;;;;;;;;25.29;57.10;100467.50;5012427;28;1813;-52
2021/08/25 10:28:22;;;;;;;;;;;;;;;25.33;57.13;100466.94;5006442;28;1910;-52
2021/08/25 10:30:57;;;;;;;;;;;;;;;25.30;56.24;100448.34;5012047;28;1726;-52
2021/08/25 10:33:25;;;;;;;;;;;;;;;25.35;57.05;100464.88;5013578;28;1070;-52
2021/08/25 10:35:51;;;;;;;;;;;;;;;25.33;56.56;100456.09;5012405;28;2944;-52
2021/08/25 10:38:22;;;;;;;;;;;;;;;25.33;56.48;100452.56;5011706;28;1891;-52
2021/08/25 10:40:49;;;;;;;;;;;;;;;25.30;57.25;100453.75;5009006;28;1827;-52
2021/08/25 10:43:33;;;;;;;;;;;;;;;25.32;56.77;100449.00;5012091;28;1802;-53
2021/08/25 10:46:00;;;;;;;;;;;;;;;25.32;56.29;100430.03;5012089;28;1731;-52
2021/08/25 10:48:44;;;;;;;;;;;;;;;25.29;56.32;100425.00;5013381;28;1977;-52
2021/08/25 10:51:26;;;;;;;;;;;;;;;25.20;56.75;100417.97;5013147;28;1083;-52
2021/08/25 10:53:53;;;;;;;;;;;;;;;25.32;56.66;100419.22;5012273;28;1683;-54
2021/08/25 10:56:28;;;;;;;;;;;;;;;25.36;56.63;100425.94;5012372;28;1195;-52
2021/08/25 10:58:56;;;;;;;;;;;;;;;25.35;56.87;100428.84;5011272;28;1684;-52
2021/08/25 11:01:23;;;;;;;;;;;;;;;25.32;56.54;100413.81;5011483;28;1937;-52
2021/08/25 11:03:57;;;;;;;;;;;;;;;25.36;57.37;100415.09;5009181;28;2120;-52
2021/08/25 11:06:41;;;;;;;;;;;;;;;25.33;56.76;100420.91;5011399;28;1597;-52
2021/08/25 11:09:25;;;;;;;;;;;;;;;25.34;57.31;100408.22;5011596;28;1902;-52
2021/08/25 11:11:54;;;;;;;;;;;;;;;25.34;57.22;100406.34;5007971;28;1976;-52
2021/08/25 11:14:21;;;;;;;;;;;;;;;25.38;56.30;100404.09;5011481;28;1496;-52
2021/08/25 11:16:48;;;;;;;;;;;;;;;25.38;57.08;100418.47;5012962;28;1000;-52
2021/08/25 11:19:27;;;;;;;;;;;;;;;25.41;56.88;100411.88;5011507;28;2159;-52
2021/08/25 11:21:54;;;;;;;;;;;;;;;25.35;56.55;100393.66;5010841;28;1826;-52
2021/08/25 11:24:21;;;;;;;;;;;;;;;25.40;57.36;100415.59;5011403;28;1727;-52
2021/08/25 11:26:47;;;;;;;;;;;;;;;25.36;57.18;100398.88;5011193;28;1536;-52
2021/08/25 11:29:18;;;;;;;;;;;;;;;25.35;56.97;100386.38;5011228;28;1910;-52
2021/08/25 11:31:44;;;;;;;;;;;;;;;25.38;56.56;100391.41;5009541;28;1563;-52
2021/08/25 11:34:12;;;;;;;;;;;;;;;25.35;56.88;100386.38;5011239;28;1662;-52
2021/08/25 11:36:51;;;;;;;;;;;;;;;25.39;56.98;100389.56;5011193;28;1989;-52
2021/08/25 11:39:17;;;;;;;;;;;;;;;25.35;56.85;100380.13;5008084;28;1907;-52
2021/08/25 11:41:44;;;;;;;;;;;;;;;25.41;56.55;100390.22;5011135;28;1781;-52
2021/08/25 11:44:11;;;;;;;;;;;;;;;25.39;56.56;100384.13;5009856;28;1518;-53
2021/08/25 11:46:37;;;;;;;;;;;;;;;25.39;56.63;100373.31;5012044;28;1071;-52
2021/08/25 11:49:04;;;;;;;;;;;;;;;25.36;56.66;100371.81;5010739;28;1985;-52
2021/08/25 11:51:31;;;;;;;;;;;;;;;25.43;57.18;100390.00;5011129;28;1500;-52
2021/08/25 11:53:58;;;;;;;;;;;;;;;25.40;56.97;100372.28;5011398;28;1714;-52
2021/08/25 11:56:25;;;;;;;;;;;;;;;25.43;57.14;100371.03;5012372;28;1093;-52
2021/08/25 11:59:07;;;;;;;;;;;;;;;25.43;57.18;100374.63;5010802;28;1887;-52
2021/08/25 12:01:34;;;;;;;;;;;;;;;25.40;56.33;100350.63;5010285;28;2319;-52
2021/08/25 12:04:00;;;;;;;;;;;;;;;25.43;57.22;100365.63;5009406;28;1836;-52
2021/08/25 12:06:41;;;;;;;;;;;;;;;25.45;57.23;100363.59;5012644;28;2080;-53
2021/08/25 12:09:09;;;;;;;;;;;;;;;25.43;56.44;100343.97;5015253;28;1906;-52
2021/08/25 12:11:53;;;;;;;;;;;;;;;25.45;56.35;100341.94;5015221;28;1603;-52
2021/08/25 12:14:20;;;;;;;;;;;;;;;25.39;56.52;100338.97;5014150;28;1712;-52
2021/08/25 12:17:01;;;;;;;;;;;;;;;25.42;57.36;100336.91;5016069;28;1076;-52
2021/08/25 12:19:27;;;;;;;;;;;;;;;25.43;57.22;100338.56;5014865;28;1582;-51
2021/08/25 12:21:54;;;;;;;;;;;;;;;25.43;56.77;100333.16;5014357;28;1650;-53
2021/08/25 12:24:21;;;;;;;;;;;;;;;25.43;57.22;100342.13;5014526;28;1577;-52
2021/08/25 12:26:54;;;;;;;;;;;;;;;25.44;56.45;100322.13;5009986;28;1636;-52
2021/08/25 12:29:28;;;;;;;;;;;;;;;25.42;57.06;100315.25;5014597;28;1906;-52
2021/08/25 12:31:56;;;;;;;;;;;;;;;25.43;56.96;100319.63;5013319;28;1575;-52
2021/08/25 12:34:22;;;;;;;;;;;;;;;25.41;56.45;100317.13;5014580;28;1575;-52
2021/08/25 12:36:53;;;;;;;;;;;;;;;25.44;57.15;100332.13;5014390;28;1560;-52
2021/08/25 12:39:22;;;;;;;;;;;;;;;25.42;57.02;100312.53;5014767;28;1661;-52
2021/08/25 12:41:50;;;;;;;;;;;;;;;25.39;57.31;100330.84;5012147;28;1004;-52
2021/08/25 12:44:17;;;;;;;;;;;;;;;25.45;57.26;100320.28;5014817;28;1759;-52
2021/08/25 12:46:50;;;;;;;;;;;;;;;25.42;57.42;100310.66;5014811;28;1540;-52
2021/08/25 12:49:17;;;;;;;;;;;;;;;25.44;56.86;100314.03;5014598;28;2022;-52
2021/08/25 12:51:43;;;;;;;;;;;;;;;25.44;57.45;100310.47;5014985;28;1705;-52
2021/08/25 12:54:10;;;;;;;;;;;;;;;25.45;57.46;100304.06;5010522;28;1685;-52
2021/08/25 12:56:36;;;;;;;;;;;;;;;25.45;56.86;100306.75;5015563;28;1882;-52
2021/08/25 12:59:04;;;;;;;;;;;;;;;25.45;56.93;100298.63;5015676;28;1000;-52
2021/08/25 13:01:31;;;;;;;;;;;;;;;25.46;57.41;100301.13;5013517;28;1810;-52
2021/08/25 13:03:57;;;;;;;;;;;;;;;25.42;56.53;100294.41;5013489;28;2014;-52
2021/08/25 13:06:24;;;;;;;;;;;;;;;25.40;57.16;100286.47;5014324;28;1688;-52